sensor_id;sensor_type;location;lat;lon;timestamp;pressure;altitude;pressure_sealevel;temperature;humidity
55271;BME280;41132;47.162;9.470;2023-04-21T00:00:45;96117.63;;;4.80;100.00
55271;BME280;41132;47.162;9.470;2023-04-21T00:03:11;96117.09;;;4.77;100.00
55271;BME280;41132;47.162;9.470;2023-04-21T00:05:36;96101.84;;;4.72;100.00
55271;BME280;41132;47.162;9.470;2023-04-21T00:08:07;96114.91;;;4.82;100.00
55271;BME280;41132;47.162;9.470;2023-04-21T00:10:32;96080.19;;;4.62;100.00
55271;BME280;41132;47.162;9.470;2023-04-21T00:12:57;96091.59;;;4.71;100.00
55271;BME280;41132;47.162;9.470;2023-04-21T00:15:23;96081.44;;;4.68;100.00
55271;BME280;41132;47.162;9.470;2023-04-21T00:17:48;96068.06;;;4.72;100.00
55271;BME280;41132;47.162;9.470;2023-04-21T00:20:13;96068.56;;;4.97;100.00
55271;BME280;41132;47.162;9.470;2023-04-21T00:22:39;96032.34;;;4.74;100.00
55271;BME280;41132;47.162;9.470;2023-04-21T00:25:05;96056.91;;;4.81;100.00
55271;BME280;41132;47.162;9.470;2023-04-21T00:27:31;96059.78;;;4.88;100.00
55271;BME280;41132;47.162;9.470;2023-04-21T00:29:56;96060.94;;;4.74;100.00
55271;BME280;41132;47.162;9.470;2023-04-21T00:32:21;96056.28;;;4.68;100.00
55271;BME280;41132;47.162;9.470;2023-04-21T00:34:47;96046.28;;;4.64;100.00
55271;BME280;41132;47.162;9.470;2023-04-21T00:37:12;96041.19;;;4.62;100.00
55271;BME280;41132;47.162;9.470;2023-04-21T00:39:37;96051.94;;;4.78;100.00
55271;BME280;41132;47.162;9.470;2023-04-21T00:42:03;96048.53;;;4.78;100.00
55271;BME280;41132;47.162;9.470;2023-04-21T00:44:28;96043.50;;;4.86;100.00
55271;BME280;41132;47.162;9.470;2023-04-21T00:46:54;96052.25;;;4.85;100.00
55271;BME280;41132;47.162;9.470;2023-04-21T00:49:19;96060.34;;;4.92;100.00
55271;BME280;41132;47.162;9.470;2023-04-21T00:51:45;96052.63;;;4.80;100.00
55271;BME280;41132;47.162;9.470;2023-04-21T00:54:13;96049.09;;;4.81;100.00
55271;BME280;41132;47.162;9.470;2023-04-21T00:56:38;96070.44;;;4.85;100.00
55271;BME280;41132;47.162;9.470;2023-04-21T00:59:04;96064.97;;;4.88;100.00
55271;BME280;41132;47.162;9.470;2023-04-21T01:01:30;96072.53;;;4.91;100.00
55271;BME280;41132;47.162;9.470;2023-04-21T01:03:58;96080.22;;;4.93;100.00
55271;BME280;41132;47.162;9.470;2023-04-21T01:06:27;96081.16;;;4.92;100.00
55271;BME280;41132;47.162;9.470;2023-04-21T01:08:54;96037.44;;;4.76;100.00
55271;BME280;41132;47.162;9.470;2023-04-21T01:11:20;96064.59;;;4.93;100.00
55271;BME280;41132;47.162;9.470;2023-04-21T01:13:45;96058.94;;;4.88;100.00
55271;BME280;41132;47.162;9.470;2023-04-21T01:16:16;96017.19;;;4.79;100.00
55271;BME280;41132;47.162;9.470;2023-04-21T01:18:43;96051.44;;;4.94;100.00
55271;BME280;41132;47.162;9.470;2023-04-21T01:21:08;96055.56;;;4.97;100.00
55271;BME280;41132;47.162;9.470;2023-04-21T01:23:33;96069.56;;;5.06;100.00
55271;BME280;41132;47.162;9.470;2023-04-21T01:25:59;96042.00;;;4.93;100.00
55271;BME280;41132;47.162;9.470;2023-04-21T01:28:25;96062.72;;;5.05;100.00
55271;BME280;41132;47.162;9.470;2023-04-21T01:30:51;96047.66;;;5.08;100.00
55271;BME280;41132;47.162;9.470;2023-04-21T01:33:18;96045.91;;;5.09;100.00
55271;BME280;41132;47.162;9.470;2023-04-21T01:35:44;96031.50;;;5.05;100.00
55271;BME280;41132;47.162;9.470;2023-04-21T01:38:09;96040.56;;;5.20;100.00
55271;BME280;41132;47.162;9.470;2023-04-21T01:40:35;96039.75;;;5.19;100.00
55271;BME280;41132;47.162;9.470;2023-04-21T01:43:01;96031.25;;;5.17;100.00
55271;BME280;41132;47.162;9.470;2023-04-21T01:45:28;96034.81;;;5.16;100.00
55271;BME280;41132;47.162;9.470;2023-04-21T01:47:54;96001.50;;;4.91;100.00
55271;BME280;41132;47.162;9.470;2023-04-21T01:50:19;96040.97;;;5.15;100.00
55271;BME280;41132;47.162;9.470;2023-04-21T01:52:44;96027.41;;;5.12;100.00
55271;BME280;41132;47.162;9.470;2023-04-21T01:55:10;96039.59;;;5.11;100.00
55271;BME280;41132;47.162;9.470;2023-04-21T01:57:35;96015.84;;;4.85;100.00
55271;BME280;41132;47.162;9.470;2023-04-21T02:00:02;96043.31;;;5.09;100.00
55271;BME280;41132;47.162;9.470;2023-04-21T02:02:28;96047.84;;;5.16;100.00
55271;BME280;41132;47.162;9.470;2023-04-21T02:04:53;96015.50;;;5.09;100.00
55271;BME280;41132;47.162;9.470;2023-04-21T02:07:19;96037.44;;;5.26;100.00
55271;BME280;41132;47.162;9.470;2023-04-21T02:09:44;96049.94;;;5.42;100.00
55271;BME280;41132;47.162;9.470;2023-04-21T02:12:10;96035.53;;;5.38;100.00
55271;BME280;41132;47.162;9.470;2023-04-21T02:14:36;96017.66;;;5.04;100.00
55271;BME280;41132;47.162;9.470;2023-04-21T02:17:02;96056.91;;;5.32;100.00
55271;BME280;41132;47.162;9.470;2023-04-21T02:19:28;96053.31;;;5.23;100.00
55271;BME280;41132;47.162;9.470;2023-04-21T02:21:53;96045.63;;;5.12;100.00
55271;BME280;41132;47.162;9.470;2023-04-21T02:24:19;96025.63;;;5.12;100.00
55271;BME280;41132;47.162;9.470;2023-04-21T02:26:44;96030.31;;;5.18;100.00
55271;BME280;41132;47.162;9.470;2023-04-21T02:29:10;96043.47;;;5.27;100.00
55271;BME280;41132;47.162;9.470;2023-04-21T02:31:35;96031.53;;;5.14;100.00
55271;BME280;41132;47.162;9.470;2023-04-21T02:34:00;96039.09;;;5.27;100.00
55271;BME280;41132;47.162;9.470;2023-04-21T02:36:26;96021.25;;;5.13;100.00
55271;BME280;41132;47.162;9.470;2023-04-21T02:38:51;96042.91;;;5.13;100.00
55271;BME280;41132;47.162;9.470;2023-04-21T02:41:17;96038.66;;;5.22;100.00
55271;BME280;41132;47.162;9.470;2023-04-21T02:43:42;96024.13;;;5.10;100.00
55271;BME280;41132;47.162;9.470;2023-04-21T02:46:08;96044.53;;;5.14;100.00
55271;BME280;41132;47.162;9.470;2023-04-21T02:48:34;96048.00;;;5.25;100.00
55271;BME280;41132;47.162;9.470;2023-04-21T02:51:00;96054.72;;;5.27;100.00
55271;BME280;41132;47.162;9.470;2023-04-21T02:53:25;96052.22;;;5.26;100.00
55271;BME280;41132;47.162;9.470;2023-04-21T02:55:51;96062.25;;;5.40;100.00
55271;BME280;41132;47.162;9.470;2023-04-21T02:58:16;96034.88;;;5.46;100.00
55271;BME280;41132;47.162;9.470;2023-04-21T03:00:42;96059.00;;;5.48;100.00
55271;BME280;41132;47.162;9.470;2023-04-21T03:03:07;96061.03;;;5.44;100.00
55271;BME280;41132;47.162;9.470;2023-04-21T03:05:33;96060.06;;;5.35;100.00
55271;BME280;41132;47.162;9.470;2023-04-21T03:07:58;96046.03;;;5.17;100.00
55271;BME280;41132;47.162;9.470;2023-04-21T03:10:24;96065.41;;;5.34;100.00
55271;BME280;41132;47.162;9.470;2023-04-21T03:12:49;96078.97;;;5.37;100.00
55271;BME280;41132;47.162;9.470;2023-04-21T03:15:15;96039.50;;;5.22;100.00
55271;BME280;41132;47.162;9.470;2023-04-21T03:17:41;96074.84;;;5.44;100.00
55271;BME280;41132;47.162;9.470;2023-04-21T03:20:07;96076.22;;;5.39;100.00
55271;BME280;41132;47.162;9.470;2023-04-21T03:22:37;96082.66;;;5.44;100.00
55271;BME280;41132;47.162;9.470;2023-04-21T03:25:03;96091.31;;;5.45;100.00
55271;BME280;41132;47.162;9.470;2023-04-21T03:27:30;96081.16;;;5.42;100.00
55271;BME280;41132;47.162;9.470;2023-04-21T03:29:56;96083.50;;;5.45;100.00
55271;BME280;41132;47.162;9.470;2023-04-21T03:32:21;96077.56;;;5.33;100.00
55271;BME280;41132;47.162;9.470;2023-04-21T03:34:47;96086.66;;;5.39;100.00
55271;BME280;41132;47.162;9.470;2023-04-21T03:37:14;96072.06;;;5.27;100.00
55271;BME280;41132;47.162;9.470;2023-04-21T03:39:39;96090.34;;;5.46;100.00
55271;BME280;41132;47.162;9.470;2023-04-21T03:42:04;96082.97;;;5.51;100.00
55271;BME280;41132;47.162;9.470;2023-04-21T03:44:30;96073.34;;;5.42;100.00
55271;BME280;41132;47.162;9.470;2023-04-21T03:46:55;96095.03;;;5.52;100.00
55271;BME280;41132;47.162;9.470;2023-04-21T03:49:22;96087.63;;;5.48;100.00
55271;BME280;41132;47.162;9.470;2023-04-21T03:51:47;96091.97;;;5.47;100.00
55271;BME280;41132;47.162;9.470;2023-04-21T03:54:13;96088.69;;;5.35;100.00
55271;BME280;41132;47.162;9.470;2023-04-21T03:56:38;96093.63;;;5.38;100.00
55271;BME280;41132;47.162;9.470;2023-04-21T03:59:03;96079.66;;;5.39;100.00
55271;BME280;41132;47.162;9.470;2023-04-21T04:01:30;96098.44;;;5.43;100.00
55271;BME280;41132;47.162;9.470;2023-04-21T04:03:56;96061.41;;;5.30;100.00
55271;BME280;41132;47.162;9.470;2023-04-21T04:06:21;96081.84;;;5.44;100.00
55271;BME280;41132;47.162;9.470;2023-04-21T04:08:47;96076.53;;;5.46;100.00
55271;BME280;41132;47.162;9.470;2023-04-21T04:11:12;96081.72;;;5.46;100.00
55271;BME280;41132;47.162;9.470;2023-04-21T04:13:37;96091.47;;;5.53;100.00
55271;BME280;41132;47.162;9.470;2023-04-21T04:16:03;96084.19;;;5.47;100.00
55271;BME280;41132;47.162;9.470;2023-04-21T04:18:28;96082.25;;;5.49;100.00
55271;BME280;41132;47.162;9.470;2023-04-21T04:20:54;96076.66;;;5.44;100.00
55271;BME280;41132;47.162;9.470;2023-04-21T04:23:19;96082.97;;;5.51;100.00
55271;BME280;41132;47.162;9.470;2023-04-21T04:25:44;96081.16;;;5.42;100.00
55271;BME280;41132;47.162;9.470;2023-04-21T04:28:12;96052.09;;;5.27;100.00
55271;BME280;41132;47.162;9.470;2023-04-21T04:30:37;96065.38;;;5.24;100.00
55271;BME280;41132;47.162;9.470;2023-04-21T04:33:02;96099.38;;;5.52;100.00
55271;BME280;41132;47.162;9.470;2023-04-21T04:35:29;96085.03;;;5.48;100.00
55271;BME280;41132;47.162;9.470;2023-04-21T04:37:54;96066.22;;;5.44;100.00
55271;BME280;41132;47.162;9.470;2023-04-21T04:40:21;96043.34;;;5.38;100.00
55271;BME280;41132;47.162;9.470;2023-04-21T04:42:46;96066.13;;;5.55;100.00
55271;BME280;41132;47.162;9.470;2023-04-21T04:45:13;96075.84;;;5.53;100.00
55271;BME280;41132;47.162;9.470;2023-04-21T04:47:41;96077.91;;;5.59;100.00
55271;BME280;41132;47.162;9.470;2023-04-21T04:50:07;96062.25;;;5.40;100.00
55271;BME280;41132;47.162;9.470;2023-04-21T04:52:32;96066.66;;;5.49;100.00
55271;BME280;41132;47.162;9.470;2023-04-21T04:54:57;96054.59;;;5.48;100.00
55271;BME280;41132;47.162;9.470;2023-04-21T04:57:23;96071.59;;;5.52;100.00
55271;BME280;41132;47.162;9.470;2023-04-21T04:59:48;96070.50;;;5.45;100.00
55271;BME280;41132;47.162;9.470;2023-04-21T05:02:13;96082.72;;;5.54;100.00
55271;BME280;41132;47.162;9.470;2023-04-21T05:04:39;96088.19;;;5.71;100.00
55271;BME280;41132;47.162;9.470;2023-04-21T05:07:04;96090.94;;;5.69;100.00
55271;BME280;41132;47.162;9.470;2023-04-21T05:09:32;96083.66;;;5.63;100.00
55271;BME280;41132;47.162;9.470;2023-04-21T05:11:57;96081.34;;;5.60;100.00
55271;BME280;41132;47.162;9.470;2023-04-21T05:14:23;96093.66;;;5.68;100.00
55271;BME280;41132;47.162;9.470;2023-04-21T05:16:48;96056.00;;;5.52;100.00
55271;BME280;41132;47.162;9.470;2023-04-21T05:19:13;96072.16;;;5.65;100.00
55271;BME280;41132;47.162;9.470;2023-04-21T05:21:39;96072.28;;;5.74;100.00
55271;BME280;41132;47.162;9.470;2023-04-21T05:24:04;96067.22;;;5.72;100.00
55271;BME280;41132;47.162;9.470;2023-04-21T05:26:30;96049.69;;;5.64;100.00
55271;BME280;41132;47.162;9.470;2023-04-21T05:28:56;96079.56;;;5.80;100.00
55271;BME280;41132;47.162;9.470;2023-04-21T05:31:23;96058.47;;;5.83;100.00
55271;BME280;41132;47.162;9.470;2023-04-21T05:33:48;96063.13;;;5.79;100.00
55271;BME280;41132;47.162;9.470;2023-04-21T05:36:14;96070.28;;;6.06;100.00
55271;BME280;41132;47.162;9.470;2023-04-21T05:38:39;96054.50;;;6.08;100.00
55271;BME280;41132;47.162;9.470;2023-04-21T05:41:05;96064.25;;;6.06;100.00
55271;BME280;41132;47.162;9.470;2023-04-21T05:43:31;96069.31;;;6.27;100.00
55271;BME280;41132;47.162;9.470;2023-04-21T05:46:06;96071.50;;;6.32;100.00
55271;BME280;41132;47.162;9.470;2023-04-21T05:48:33;96077.94;;;6.37;100.00
55271;BME280;41132;47.162;9.470;2023-04-21T05:51:10;96068.16;;;6.49;100.00
55271;BME280;41132;47.162;9.470;2023-04-21T05:53:37;96065.28;;;6.42;100.00
55271;BME280;41132;47.162;9.470;2023-04-21T05:56:03;96066.03;;;6.82;100.00
55271;BME280;41132;47.162;9.470;2023-04-21T05:58:28;96054.47;;;6.84;100.00
55271;BME280;41132;47.162;9.470;2023-04-21T06:00:54;96057.16;;;7.02;100.00
55271;BME280;41132;47.162;9.470;2023-04-21T06:03:19;96043.50;;;7.08;100.00
55271;BME280;41132;47.162;9.470;2023-04-21T06:05:45;96061.78;;;7.08;100.00
55271;BME280;41132;47.162;9.470;2023-04-21T06:08:11;96058.50;;;7.06;100.00
55271;BME280;41132;47.162;9.470;2023-04-21T06:10:36;96052.38;;;6.98;100.00
55271;BME280;41132;47.162;9.470;2023-04-21T06:13:02;96062.88;;;7.06;100.00
55271;BME280;41132;47.162;9.470;2023-04-21T06:15:27;96074.63;;;6.92;100.00
55271;BME280;41132;47.162;9.470;2023-04-21T06:17:53;96037.50;;;6.71;100.00
55271;BME280;41132;47.162;9.470;2023-04-21T06:20:19;96075.25;;;7.04;100.00
55271;BME280;41132;47.162;9.470;2023-04-21T06:22:44;96073.06;;;6.99;100.00
55271;BME280;41132;47.162;9.470;2023-04-21T06:25:10;96072.50;;;7.05;100.00
55271;BME280;41132;47.162;9.470;2023-04-21T06:27:35;96075.56;;;7.28;100.00
55271;BME280;41132;47.162;9.470;2023-04-21T06:30:00;96066.53;;;7.23;100.00
55271;BME280;41132;47.162;9.470;2023-04-21T06:32:26;96057.47;;;7.17;100.00
55271;BME280;41132;47.162;9.470;2023-04-21T06:34:51;96041.72;;;7.37;100.00
55271;BME280;41132;47.162;9.470;2023-04-21T06:37:17;96056.06;;;7.68;100.00
55271;BME280;41132;47.162;9.470;2023-04-21T06:39:42;96064.41;;;8.26;100.00
55271;BME280;41132;47.162;9.470;2023-04-21T06:42:07;96066.72;;;9.41;100.00
55271;BME280;41132;47.162;9.470;2023-04-21T06:44:32;96053.81;;;10.87;100.00
55271;BME280;41132;47.162;9.470;2023-04-21T06:46:58;96040.53;;;10.89;97.93
55271;BME280;41132;47.162;9.470;2023-04-21T06:49:23;96036.69;;;11.08;98.25
55271;BME280;41132;47.162;9.470;2023-04-21T06:51:49;96053.09;;;11.18;97.74
55271;BME280;41132;47.162;9.470;2023-04-21T06:54:14;96045.31;;;11.64;92.21
55271;BME280;41132;47.162;9.470;2023-04-21T06:56:40;96006.81;;;11.71;92.75
55271;BME280;41132;47.162;9.470;2023-04-21T06:59:08;96021.44;;;13.32;87.69
55271;BME280;41132;47.162;9.470;2023-04-21T07:01:34;96017.19;;;14.32;82.80
55271;BME280;41132;47.162;9.470;2023-04-21T07:04:00;96037.38;;;15.31;68.08
55271;BME280;41132;47.162;9.470;2023-04-21T07:06:25;96034.00;;;16.52;60.62
55271;BME280;41132;47.162;9.470;2023-04-21T07:08:51;96014.97;;;17.15;61.72
55271;BME280;41132;47.162;9.470;2023-04-21T07:11:16;96024.31;;;17.76;61.32
55271;BME280;41132;47.162;9.470;2023-04-21T07:13:41;96007.66;;;17.62;57.92
55271;BME280;41132;47.162;9.470;2023-04-21T07:16:07;96014.03;;;17.93;51.18
55271;BME280;41132;47.162;9.470;2023-04-21T07:18:32;96010.16;;;18.71;51.58
55271;BME280;41132;47.162;9.470;2023-04-21T07:20:59;95999.59;;;18.64;52.45
55271;BME280;41132;47.162;9.470;2023-04-21T07:23:25;96004.78;;;19.03;48.03
55271;BME280;41132;47.162;9.470;2023-04-21T07:25:50;95981.06;;;19.38;46.45
55271;BME280;41132;47.162;9.470;2023-04-21T07:28:16;96003.63;;;20.14;45.50
55271;BME280;41132;47.162;9.470;2023-04-21T07:30:41;95997.66;;;20.54;45.98
55271;BME280;41132;47.162;9.470;2023-04-21T07:33:06;96000.28;;;19.89;47.12
55271;BME280;41132;47.162;9.470;2023-04-21T07:35:33;95992.41;;;19.94;45.45
55271;BME280;41132;47.162;9.470;2023-04-21T07:37:58;95999.19;;;20.08;45.86
55271;BME280;41132;47.162;9.470;2023-04-21T07:40:23;95997.91;;;21.23;45.01
55271;BME280;41132;47.162;9.470;2023-04-21T07:42:49;96001.84;;;20.97;43.05
55271;BME280;41132;47.162;9.470;2023-04-21T07:45:14;95999.06;;;20.69;44.68
55271;BME280;41132;47.162;9.470;2023-04-21T07:47:40;96007.16;;;22.02;43.79
55271;BME280;41132;47.162;9.470;2023-04-21T07:50:06;95991.53;;;20.89;47.73
55271;BME280;41132;47.162;9.470;2023-04-21T07:52:31;96000.97;;;21.32;43.35
55271;BME280;41132;47.162;9.470;2023-04-21T07:54:57;95995.22;;;21.12;44.50
55271;BME280;41132;47.162;9.470;2023-04-21T07:57:22;95986.22;;;21.01;43.04
55271;BME280;41132;47.162;9.470;2023-04-21T07:59:47;95978.91;;;21.37;40.62
55271;BME280;41132;47.162;9.470;2023-04-21T08:02:13;95969.97;;;21.55;42.03
55271;BME280;41132;47.162;9.470;2023-04-21T08:04:38;95982.56;;;21.42;41.02
55271;BME280;41132;47.162;9.470;2023-04-21T08:07:04;95985.00;;;22.18;40.55
55271;BME280;41132;47.162;9.470;2023-04-21T08:09:29;95977.03;;;21.89;44.70
55271;BME280;41132;47.162;9.470;2023-04-21T08:11:55;95972.56;;;22.24;45.52
55271;BME280;41132;47.162;9.470;2023-04-21T08:14:22;95975.44;;;22.90;42.85
55271;BME280;41132;47.162;9.470;2023-04-21T08:16:47;95979.00;;;22.11;45.52
55271;BME280;41132;47.162;9.470;2023-04-21T08:19:13;95971.03;;;23.18;38.77
55271;BME280;41132;47.162;9.470;2023-04-21T08:21:39;95964.34;;;21.97;41.69
55271;BME280;41132;47.162;9.470;2023-04-21T08:24:05;95948.88;;;21.41;42.59
55271;BME280;41132;47.162;9.470;2023-04-21T08:26:30;95965.16;;;22.14;44.43
55271;BME280;41132;47.162;9.470;2023-04-21T08:28:58;95964.91;;;21.99;42.30
55271;BME280;41132;47.162;9.470;2023-04-21T08:31:24;95943.41;;;21.48;44.37
55271;BME280;41132;47.162;9.470;2023-04-21T08:33:49;95964.75;;;21.48;44.86
55271;BME280;41132;47.162;9.470;2023-04-21T08:36:15;95954.66;;;21.50;45.04
55271;BME280;41132;47.162;9.470;2023-04-21T08:38:41;95952.44;;;21.59;46.48
55271;BME280;41132;47.162;9.470;2023-04-21T08:41:08;95925.50;;;21.20;46.76
55271;BME280;41132;47.162;9.470;2023-04-21T08:43:33;95948.56;;;21.26;45.12
55271;BME280;41132;47.162;9.470;2023-04-21T08:45:59;95937.06;;;22.11;46.88
55271;BME280;41132;47.162;9.470;2023-04-21T08:48:28;95954.31;;;21.75;47.00
55271;BME280;41132;47.162;9.470;2023-04-21T08:50:55;95934.31;;;22.06;45.38
55271;BME280;41132;47.162;9.470;2023-04-21T08:53:21;95929.88;;;23.02;43.29
55271;BME280;41132;47.162;9.470;2023-04-21T08:55:50;95934.56;;;23.61;41.24
55271;BME280;41132;47.162;9.470;2023-04-21T08:58:16;95929.69;;;22.52;43.66
55271;BME280;41132;47.162;9.470;2023-04-21T09:00:41;95929.44;;;22.20;45.93
55271;BME280;41132;47.162;9.470;2023-04-21T09:03:07;95931.00;;;22.67;45.55
55271;BME280;41132;47.162;9.470;2023-04-21T09:05:33;95916.81;;;23.54;43.06
55271;BME280;41132;47.162;9.470;2023-04-21T09:08:14;95924.88;;;24.09;41.00
55271;BME280;41132;47.162;9.470;2023-04-21T09:10:44;95917.81;;;23.97;40.82
55271;BME280;41132;47.162;9.470;2023-04-21T09:13:10;95913.78;;;23.19;44.37
55271;BME280;41132;47.162;9.470;2023-04-21T09:15:40;95923.47;;;22.86;40.91
55271;BME280;41132;47.162;9.470;2023-04-21T09:18:13;95917.63;;;23.28;42.43
55271;BME280;41132;47.162;9.470;2023-04-21T09:20:40;95930.50;;;23.31;42.87
55271;BME280;41132;47.162;9.470;2023-04-21T09:23:06;95911.41;;;22.83;46.83
55271;BME280;41132;47.162;9.470;2023-04-21T09:25:33;95928.19;;;22.40;44.93
55271;BME280;41132;47.162;9.470;2023-04-21T09:27:59;95927.19;;;22.46;45.76
55271;BME280;41132;47.162;9.470;2023-04-21T09:30:25;95892.41;;;23.24;45.66
55271;BME280;41132;47.162;9.470;2023-04-21T09:32:55;95908.34;;;23.63;44.25
55271;BME280;41132;47.162;9.470;2023-04-21T09:35:20;95900.81;;;22.33;41.98
55271;BME280;41132;47.162;9.470;2023-04-21T09:37:46;95897.94;;;23.66;42.74
55271;BME280;41132;47.162;9.470;2023-04-21T09:40:13;95905.84;;;23.78;43.26
55271;BME280;41132;47.162;9.470;2023-04-21T09:42:40;95881.56;;;23.63;42.53
55271;BME280;41132;47.162;9.470;2023-04-21T09:45:07;95893.06;;;22.92;41.56
55271;BME280;41132;47.162;9.470;2023-04-21T09:47:38;95891.28;;;23.42;43.41
55271;BME280;41132;47.162;9.470;2023-04-21T09:50:06;95906.78;;;23.18;42.81
55271;BME280;41132;47.162;9.470;2023-04-21T09:52:32;95879.09;;;24.15;40.76
55271;BME280;41132;47.162;9.470;2023-04-21T09:55:01;95901.53;;;24.79;42.68
55271;BME280;41132;47.162;9.470;2023-04-21T09:57:31;95893.69;;;24.67;40.02
55271;BME280;41132;47.162;9.470;2023-04-21T10:00:00;95880.03;;;23.45;44.25
55271;BME280;41132;47.162;9.470;2023-04-21T10:02:29;95876.19;;;24.22;42.66
55271;BME280;41132;47.162;9.470;2023-04-21T10:04:55;95891.44;;;25.07;40.34
55271;BME280;41132;47.162;9.470;2023-04-21T10:07:21;95893.03;;;24.97;39.18
55271;BME280;41132;47.162;9.470;2023-04-21T10:09:51;95889.13;;;24.68;41.54
55271;BME280;41132;47.162;9.470;2023-04-21T10:12:19;95871.78;;;24.86;43.06
55271;BME280;41132;47.162;9.470;2023-04-21T10:14:45;95845.97;;;24.79;41.09
55271;BME280;41132;47.162;9.470;2023-04-21T10:17:14;95859.78;;;25.09;40.39
55271;BME280;41132;47.162;9.470;2023-04-21T10:19:48;95877.31;;;25.27;40.04
55271;BME280;41132;47.162;9.470;2023-04-21T10:22:13;95868.47;;;25.26;39.84
55271;BME280;41132;47.162;9.470;2023-04-21T10:24:40;95868.13;;;24.17;39.41
55271;BME280;41132;47.162;9.470;2023-04-21T10:27:10;95833.41;;;24.85;41.96
55271;BME280;41132;47.162;9.470;2023-04-21T10:29:36;95856.03;;;25.10;39.05
55271;BME280;41132;47.162;9.470;2023-04-21T10:32:03;95851.97;;;24.97;40.20
55271;BME280;41132;47.162;9.470;2023-04-21T10:34:37;95842.66;;;24.20;43.28
55271;BME280;41132;47.162;9.470;2023-04-21T10:39:44;95850.56;;;22.96;43.31
55271;BME280;41132;47.162;9.470;2023-04-21T10:44:43;95844.22;;;21.39;37.72
55271;BME280;41132;47.162;9.470;2023-04-21T10:47:09;95818.28;;;20.94;38.46
55271;BME280;41132;47.162;9.470;2023-04-21T10:49:39;95836.09;;;20.77;40.03
55271;BME280;41132;47.162;9.470;2023-04-21T10:52:14;95852.09;;;20.41;37.59
55271;BME280;41132;47.162;9.470;2023-04-21T10:55:04;95829.31;;;20.10;41.66
55271;BME280;41132;47.162;9.470;2023-04-21T10:57:32;95825.59;;;19.46;41.56
55271;BME280;41132;47.162;9.470;2023-04-21T10:59:58;95810.16;;;19.24;39.51
55271;BME280;41132;47.162;9.470;2023-04-21T11:02:25;95835.50;;;18.78;38.47
55271;BME280;41132;47.162;9.470;2023-04-21T11:04:52;95798.75;;;18.38;39.29
55271;BME280;41132;47.162;9.470;2023-04-21T11:07:19;95831.50;;;18.32;39.09
55271;BME280;41132;47.162;9.470;2023-04-21T11:09:46;95828.09;;;18.06;43.11
55271;BME280;41132;47.162;9.470;2023-04-21T11:12:16;95818.59;;;17.99;41.16
55271;BME280;41132;47.162;9.470;2023-04-21T11:14:43;95809.44;;;17.94;44.85
55271;BME280;41132;47.162;9.470;2023-04-21T11:17:13;95818.72;;;17.79;44.60
55271;BME280;41132;47.162;9.470;2023-04-21T11:19:39;95830.66;;;17.69;42.44
55271;BME280;41132;47.162;9.470;2023-04-21T11:22:05;95820.50;;;17.60;44.45
55271;BME280;41132;47.162;9.470;2023-04-21T11:24:31;95830.91;;;17.61;44.25
55271;BME280;41132;47.162;9.470;2023-04-21T11:26:57;95831.78;;;17.48;46.10
55271;BME280;41132;47.162;9.470;2023-04-21T11:29:22;95825.72;;;17.41;44.41
55271;BME280;41132;47.162;9.470;2023-04-21T11:31:48;95817.53;;;17.49;44.76
55271;BME280;41132;47.162;9.470;2023-04-21T11:34:15;95832.03;;;17.47;43.77
55271;BME280;41132;47.162;9.470;2023-04-21T11:36:44;95818.41;;;17.37;43.01
55271;BME280;41132;47.162;9.470;2023-04-21T11:39:13;95832.78;;;17.54;44.54
55271;BME280;41132;47.162;9.470;2023-04-21T11:41:44;95829.94;;;17.56;42.61
55271;BME280;41132;47.162;9.470;2023-04-21T11:44:10;95827.75;;;17.46;42.48
55271;BME280;41132;47.162;9.470;2023-04-21T11:46:36;95824.75;;;17.36;41.34
55271;BME280;41132;47.162;9.470;2023-04-21T11:49:11;95826.16;;;17.38;43.97
55271;BME280;41132;47.162;9.470;2023-04-21T11:51:39;95820.47;;;17.35;43.45
55271;BME280;41132;47.162;9.470;2023-04-21T11:54:09;95806.59;;;17.32;44.24
55271;BME280;41132;47.162;9.470;2023-04-21T11:56:40;95817.53;;;17.49;41.90
55271;BME280;41132;47.162;9.470;2023-04-21T11:59:10;95827.31;;;17.49;43.54
55271;BME280;41132;47.162;9.470;2023-04-21T12:01:43;95826.97;;;17.39;41.81
55271;BME280;41132;47.162;9.470;2023-04-21T12:04:13;95812.66;;;17.46;45.53
55271;BME280;41132;47.162;9.470;2023-04-21T12:06:40;95818.91;;;17.27;42.44
55271;BME280;41132;47.162;9.470;2023-04-21T12:09:06;95849.31;;;17.24;41.62
55271;BME280;41132;47.162;9.470;2023-04-21T12:11:31;95810.47;;;17.05;40.92
55271;BME280;41132;47.162;9.470;2023-04-21T12:13:57;95833.25;;;17.19;43.07
55271;BME280;41132;47.162;9.470;2023-04-21T12:16:27;95793.53;;;17.06;42.67
55271;BME280;41132;47.162;9.470;2023-04-21T12:18:56;95847.44;;;17.31;41.29
55271;BME280;41132;47.162;9.470;2023-04-21T12:21:26;95845.31;;;17.08;41.50
55271;BME280;41132;47.162;9.470;2023-04-21T12:23:52;95828.63;;;17.08;41.45
55271;BME280;41132;47.162;9.470;2023-04-21T12:26:17;95833.06;;;17.07;40.83
55271;BME280;41132;47.162;9.470;2023-04-21T12:28:43;95843.13;;;16.99;41.46
55271;BME280;41132;47.162;9.470;2023-04-21T12:31:08;95832.19;;;16.82;41.71
55271;BME280;41132;47.162;9.470;2023-04-21T12:33:34;95839.97;;;16.70;42.03
55271;BME280;41132;47.162;9.470;2023-04-21T12:35:59;95833.03;;;16.69;42.38
55271;BME280;41132;47.162;9.470;2023-04-21T12:38:24;95875.00;;;16.72;40.66
55271;BME280;41132;47.162;9.470;2023-04-21T12:40:50;95850.56;;;16.70;41.75
55271;BME280;41132;47.162;9.470;2023-04-21T12:43:17;95852.19;;;16.64;40.87
55271;BME280;41132;47.162;9.470;2023-04-21T12:45:42;95856.91;;;16.62;41.19
55271;BME280;41132;47.162;9.470;2023-04-21T12:48:07;95844.03;;;16.73;39.58
55271;BME280;41132;47.162;9.470;2023-04-21T12:50:33;95848.84;;;16.96;41.28
55271;BME280;41132;47.162;9.470;2023-04-21T12:52:58;95827.28;;;16.92;39.55
55271;BME280;41132;47.162;9.470;2023-04-21T12:55:24;95861.22;;;17.08;40.21
55271;BME280;41132;47.162;9.470;2023-04-21T12:57:49;95811.81;;;16.82;39.70
55271;BME280;41132;47.162;9.470;2023-04-21T13:00:15;95856.97;;;17.01;38.83